Extreme weather reports worldwide

Atmospheric pressure

Low pressure

Station
 
Location
 
Name
 
Wind
Knots
Gust
Knots
Vis
SM
Temp/Dew
C
Baro
inHg
METAR
 
LPOV Ovar, PT Ovar Air Base 1 6.21 15/14 25.16 LPOV 100500Z VRB01KT CAVOK 15/14 Q0852
NZCM 20 27 6.21 -13/-18 28.83 NZCM 100455Z AUTO 19020G27KT 9999 FEW075 OVC190 M14/M18 A2883 RMK AO2 PK WND 20027/0452 SLP767 T11381181 $
AEY BIAR Akureyri, IS Akureyri Airport 11 6.21 13/8 29.20 BIAR 100500Z 18011KT 140V230 9999 FEW052 13/08 Q0989
EGS BIEG Egilsstaðir, IS Egilsstaðir Airport 8 6.21 12/6 29.26 BIEG 100500Z 17008KT 9999 SCT057 BKN070 12/06 Q0991
AWZ OIAW Ahwaz, IR Ahwaz Airport 6 6.21 37/10 29.29 OIAW 100500Z 29006KT CAVOK 37/10 Q0992

Station
 
Location
 
Name
 
Wind
Knots
Gust
Knots
Vis
SM
Temp/Dew
C
Baro
inHg
METAR
 
KHK OIBQ IR Khark Island Airport 8 4.97 36/29 29.32 OIBQ 100500Z 35008KT 8000 FEW040 36/29 Q0993 A2934
OIBH IR Bastak Airport 10 3.11 37/30 29.32 OIBH 100500Z 18010KT 5000 HZ FEW030 37/30 Q0993 A2932
BUZ OIBB Bushehr, IR Bushehr Airport 12 4.97 36/29 29.32 OIBB 100500Z 17012KT 8000 FEW040 36/29 Q0993 A2934
MRX OIAM IR Mahshahr Airport 12 3.73 36/10 29.32 OIAM 100500Z 31012KT 6000 NSC 36/10 Q0993
RAJ VARK Rajkot, IN Rajkot Airport 5 3.73 29/25 29.35 VARK 100500Z 09005KT 6000 SCT015 BKN080 29/25 Q0994 NOSIG
PBD VAPR Porbandar, IN Porbandar Airport 12 2.49 28/26 29.35 VAPR 100500Z 35012KT 4000 HZ SCT015 SCT025 BKN080 28/26 Q0994 TEMPO 3000 DZ
BQS UHBB Blagoveschensk, RU Ignatyevo Airport 10 6.21 20/12 29.35 UHBB 100500Z 31005MPS 280V350 9999 SCT033CB 20/12 Q0994 R36/090060 NOSIG RMK QFE728/0971
AUH OMAA Abu Dhabi, AE Abu Dhabi International Airport 7 5.59 39/20 29.35 OMAA 100500Z 14007KT 110V180 9000 NSC 39/20 Q0994 NOSIG
PGU OIBP Asalouyeh, IR Persian Gulf International Airport 4 1.86 38/33 29.35 OIBP 100500Z 18004KT 3000 1400SE HZ NSC 38/33 Q0994 A2936
AEU OIBA Abu Musa, IR Abu Musa Island Airport 6 3.11 36/27 29.35 OIBA 100500Z 09006KT 5000 HZ NSC 36/27 Q0994
AKW OIAG Aghajari, IR Aghajari Airport 4 4.35 37/11 29.35 OIAG 100500Z 26004KT 7000 NSC 37/11 Q0994
DHA OEDR SA King Abdulaziz Air Base 11 3.11 35/15 29.35 OEDR 100500Z 31011KT 5000 DU NSC 35/15 Q0994 NOSIG
ABD OIAA Abadan, IR Abadan Airport 16 4.35 39/10 29.35 OIAA 100450Z 31016KT 7000 NSC 39/10 Q0994 NOSIG
VERP 10 20 3.73 25/23 29.38 VERP 100500Z 21010G20KT 6000 FEW012 SCT018 OVC080 25/23 Q0995 TEMPO 5000 -DZ
JLR VAJB IN Jabalpur Airport 8 2.49 28/24 29.38 VAJB 100500Z 05008KT 4000 HZ FEW008 SCT020 BKN080 28/24 Q0995 NOSIG
AMD VAAH Ahmedabad, IN Sardar Vallabhbhai Patel International Airport 0 2.17 30/27 29.38 VAAH 100500Z 00000KT 3500 BR SCT018 SCT025 BKN080 30/27 Q0995 NOSIG
KHV UHHH Khabarovsk, RU Khabarovsk-Novy Airport 16 6.21 25/17 29.38 UHHH 100500Z 19008MPS 9999 SCT039CB 25/17 Q0995 R23R/090060 NOSIG RMK QFE740/0987
DOH OTHH Doha, QA Hamad International Airport 4 3.73 37/24 29.38 OTHH 100500Z 21004KT 150V240 6000 NSC 37/24 Q0995 NOSIG
DIA OTBD Doha, QA Doha International Airport 5 3.73 37/25 29.38 OTBD 100500Z 18005KT 140V220 6000 NSC 37/25 Q0995 NOSIG
SHJ OMSJ Sharjah, AE Sharjah International Airport 9 6.21 38/20 29.38 OMSJ 100500Z 12009KT CAVOK 38/20 Q0995 NOSIG
DXB OMDB Dubai, AE Dubai International Airport 9 6.21 38/20 29.38 OMDB 100500Z 14009KT CAVOK 38/20 Q0995 NOSIG
AZI OMAD AE Bateen Airport 5 6.21 38/21 29.38 OMAD 100500Z 14005KT CAVOK 38/21 Q0995 NOSIG
ZBR OIZC Chabahar, IR Konarak Airport 8 3.73 34/25 29.38 OIZC 100500Z 28008KT 6000 FEW035 34/25 Q0995
OIKQ IR Dayrestan Airport 12 4.35 34/30 29.38 OIKQ 100500Z 09012KT 7000 NSC 34/30 Q0995 NOSIG
LVP OIBV IR Lavan Island Airport 12 1.86 35/31 29.38 OIBV 100500Z 15012KT 3000 TS FEW030CB SCT100 35/31 Q0995
BDH OIBL Bandar Lengeh, IR Bandar Lengeh Airport 14 3.11 35/27 29.38 OIBL 100500Z 10014KT 5000 HZ NSC 35/27 Q0995
KIH OIBK Kish Island, IR Kish International Airport 12 2.49 32/31 29.38 OIBK 100500Z 09012KT 4000 BR NSC 32/31 Q0995 NOSIG
OIAI IR Shahid Asyaee Airport 2 6.21 40/10 29.38 OIAI 100500Z 32002KT CAVOK 40/10 Q0995
QJB OEJB Jubail, SA Jubail Airport 11 2.49 38/15 29.38 OEJB 100500Z AUTO 31011KT 4000 DU NSC 38/15 Q0995 NOSIG
DMM OEDF Ad Dammam, SA King Fahd International Airport 10 2.17 37/9 29.38 OEDF 100500Z 30010KT 3500 DU NSC 37/09 Q0995 NOSIG
BAH OBBI Manama, BH Bahrain International Airport 12 6.21 38/26 29.38 OBBI 100500Z 32012KT 9999 FEW035 38/26 Q0995 NOSIG
PAT VEPT Patna, IN Lok Nayak Jayaprakash Airport 12 22 2.49 30/26 29.41 VEPT 100500Z 11012G22KT 4000 HZ FEW012 SCT016 BKN100 30/26 Q0996 NOSIG
IXW VEJS Jamshedpur, IN Sonari Airport 6 2.17 28/25 29.41 VEJS 100500Z 14006KT 3500 HZ SCT015 BKN100 28/25 Q0996
JRG VEJH IN Jharsuguda Airport 8 2.17 26/24 29.41 VEJH 100500Z 14008KT 3500 -RA BKN017 OVC080 26/24 Q0996
GAY VEGY IN Gaya Airport 12 3.11 31/25 29.41 VEGY 100500Z 09012KT 5000 HZ SCT018 BKN100 31/25 Q0996
CCU VECC Kolkata, IN Netaji Subhash Chandra Bose International Airport 9 2.49 29/26 29.41 VECC 100500Z 09009KT 4000 HZ SCT018 BKN090 29/26 Q0996 NOSIG
BBI VEBS Bhubaneswar, IN Biju Patnaik Airport 7 1.86 26/26 29.41 VEBS 100500Z 18007KT 3000 -RA BKN016 OVC090 26/26 Q0996 NOSIG
BDQ VABO Vadodara, IN Vadodara Airport 6 3.73 29/25 29.41 VABO 100500Z 20006KT 6000 SCT020 BKN080 29/25 Q0996 NOSIG
SKZ OPSK Mirpur Khas, PK Sukkur Airport 6 3.11 36/28 29.41 OPSK 100500Z 05006KT 5000 HZ FEW100 36/28 Q0996 NOSIG
WNS OPNH Nawabashah, PK Shaheed Benazirabad Airport 4 2.49 33/28 29.41 OPNH 100500Z 31504KT 4000 FU FEW035 SCT100 33/28 Q0996
RKT OMRK Ras Al Khaimah, AE Ras Al Khaimah International Airport 4 37/25 29.41 OMRK 100500Z 35004KT 300V030 NSC 37/25 Q0996 A2941
DWC OMDW Jebel Ali, AE Al Maktoum International Airport 9 6.21 39/22 29.41 OMDW 100500Z 14009KT CAVOK 39/22 Q0996 NOSIG
KWI OKBK Kuwait City, KW Kuwait International Airport 19 4.97 39/10 29.41 OKBK 100500Z 34019KT 8000 BLDU NSC 39/10 Q0996 NOSIG
JSK OIZJ Jask, IR Jask Airport 10 3.11 31/29 29.41 OIZJ 100500Z 09010KT 5000 BR NSC 31/29 Q0996
OICM 14 6.21 35/9 29.41 OICM 100500Z 30014KT CAVOK 35/09 Q0996

High pressure

Station
 
Location
 
Name
 
Wind
Knots
Gust
Knots
Vis
SM
Temp/Dew
C
Baro
inHg
METAR
 
KMYP 9 10 10/5 30.90 KMYP 100515Z AUTO 07009KT 10SM SCT035 10/05 A3090 RMK AO2
KCPW 10 10 10/5 30.84 KCPW 100515Z AUTO 17010KT 10SM SCT049 10/05 A3084 RMK AO2
K0CO 10 8/2 30.83 K0CO 100515Z AUTO 10SM CLR 08/02 A3083 RMK AO2
KCCU 12 19 10 15/6 30.79 KCCU 100515Z AUTO 13012G19KT 110V170 10SM SCT070 15/06 A3079 RMK AO2
K4BM 9 10 11/3 30.78 K4BM 100515Z AUTO 14009KT 10SM CLR 11/03 A3078 RMK AO2

Station
 
Location
 
Name
 
Wind
Knots
Gust
Knots
Vis
SM
Temp/Dew
C
Baro
inHg
METAR
 
LPB SLLP La Paz / El Alto, BO El Alto International Airport 9 2.49 3/3 30.74 SLLP 100500Z 10009KT 4000E VCFG FEW002 SCT008 03/03 Q1041
KC99 0 10 12/5 30.72 KC99 100513Z AUTO 00000KT 10SM CLR 12/05 A3072 RMK AO2
K5SM 3 10 15/-1 30.67 K5SM 100515Z AUTO 08003KT 10SM CLR 15/M01 A3067 RMK AO2
KC07 5 10 15/4 30.65 KC07 100515Z AUTO 14005KT 10SM CLR 15/04 A3065 RMK AO2
KVTP 0 10 12/6 30.65 KVTP 100515Z AUTO 00000KT 10SM CLR 12/06 A3065 RMK AO2
K7BM 14 22 10 17/4 30.64 K7BM 100515Z AUTO 14014G22KT 10SM SCT060 SCT100 17/04 A3064 RMK AO2
LXV KLXV Leadville, US Lake County Airport 3 10 14/6 30.62 KLXV 100453Z AUTO 19003KT 10SM CLR 14/07 A3062 RMK AO2 SLPNO T01440067
LIMH IT Pian Rosà 2 3/0 30.56 LIMH 100455Z AUTO VRB02KT //// 03/00 Q1035
TEX KTEX Telluride, US Telluride Regional Airport 0 10 17/5 30.55 KTEX 100515Z AUTO 00000KT 10SM OVC100 17/05 A3055 RMK AO2
AXX KAXX Angel Fire, US Angel Fire Airport 0 10 10/9 30.54 KAXX 100515Z AUTO 00000KT 10SM CLR 10/09 A3054 RMK AO2 T01040091
SLT KANK Salida, US Salida Airport Harriett Alexander Field 4 10 / 30.53 KANK 100515Z AUTO 09004KT 10SM OVC090 A3053 RMK AO1
KAEJ Buena Vista, US Central Colorado Regional Airport 3 10 19/5 30.49 KAEJ 100515Z AUTO 14003KT 10SM 20/05 A3049 RMK AO2 T01970051
KGNB Granby, US Granby Grand County Airport 3 10 16/5 30.49 KGNB 100515Z AUTO 14003KT 10SM CLR 17/05 A3049 RMK AO2 T01660050
KRCV 6 10 17/8 30.49 KRCV 100515Z AUTO 26006KT 10SM OVC080 18/08 A3049 RMK AO2 T01760082
K04V 0 10 16/8 30.48 K04V 100515Z AUTO 00000KT 10SM 16/08 A3048 RMK AO2 PWINO
CBB SLCB Cochabamba, BO Jorge Wilsterman International Airport 3 6.21 10/2 30.47 SLCB 100500Z 31003KT 9999 NSC 10/02 Q1032
TLC MMTO Toluca, MX Licenciado Adolfo Lopez Mateos International Airport 0 5 12/11 30.46 MMTO 100442Z 00000KT 5SM SCT015 OVC070 12/11 A3046 RMK 8/46/ BINOVC HZY
K33V 0 10 14/5 30.46 K33V 100515Z AUTO 00000KT 10SM CLR 14/05 A3046 RMK AO1
PGO KPSO Pagosa Springs, US Stevens Field 0 10 15/10 30.46 KPSO 100515Z AUTO 00000KT 10SM SCT075 15/11 A3046 RMK AO2 T01520105
KP60 3 10/4 30.45 KP60 100456Z AUTO 31003KT 11/04 A3045 RMK AO1 SLP235 T01060044
MVD SUMU Montevideo, UY Carrasco International /General C L Berisso Airport 0 0.12 5/5 30.44 SUMU 100500Z 00000KT 0200 R19/0650N R24/0250N FG FEW003 SCT017 05/05 Q1031 NOSIG
KFLY 6 10 18/10 30.44 KFLY 100515Z AUTO 19006KT 10SM CLR 18/11 A3044 RMK AO2 T01800108
ALS KALS Alamosa, US San Luis Valley Regional Bergman Field 7 10 16/11 30.43 KALS 100452Z AUTO 19007KT 10SM CLR 16/11 A3043 RMK AO2 SLP208 T01610111
TSM KSKX Taos, US Taos Regional Airport 10 10 19/10 30.43 KSKX 100456Z AUTO 14010KT 10SM CLR 19/10 A3043 RMK AO2 WSHFT 0408 SLP226 T01940100
LAM KLAM Los Alamos, US Los Alamos Airport 5 10 20/9 30.43 KLAM 100515Z AUTO 20005KT 10SM SCT100 20/09 A3043 RMK AO2 T02030090
KMNH 11 10 17/10 30.43 KMNH 100515Z AUTO 16011KT 10SM CLR 17/10 A3043 RMK AO2
KCQC 6 10 17/11 30.42 KCQC 100453Z AUTO 19006KT 10SM CLR 17/12 A3042 RMK AO2 SLP212 T01720117
LVS KLVS Las Vegas, US Las Vegas Municipal Airport 6 10 16/10 30.42 KLVS 100453Z AUTO 03006KT 10SM CLR 17/11 A3042 RMK AO2 SLP191 T01670106
GUC KGUC Gunnison, US Gunnison Crested Butte Regional Airport 13 10 22/6 30.42 KGUC 100456Z AUTO 09013KT 10SM CLR 22/07 A3042 RMK AO2 SLP192 T02220067
RUI KSRR Ruidoso, US Sierra Blanca Regional Airport 4 10 15/11 30.42 KSRR 100515Z AUTO 25004KT 10SM 15/11 A3042 RMK AO2 TSNO
AEP SABE Buenos Aires, AR Jorge Newbery Airpark 10 6.21 11/5 30.41 SABE 100500Z 07010KT CAVOK 11/05 Q1030 NOSIG RMK PP000
FDO SADF San Fernando, AR San Fernando Airport 7 6.21 8/6 30.41 SADF 100500Z 05007KT CAVOK 08/06 Q1030 RMK PP000
EZE SAEZ Buenos Aires, AR Ministro Pistarini International Airport 3 6.21 7/5 30.41 SAEZ 100500Z 09003KT CAVOK 07/05 Q1030 NOSIG RMK PP000
SLA SASA Salta, AR Martin Miguel De Guemes International Airport 4 6.21 3/1 30.41 SASA 100500Z 27004KT CAVOK 03/01 Q1030 RMK PP000
JUJ SASJ San Salvador de Jujuy, AR Gobernador Horacio Guzman International Airport 5 6.21 6/3 30.41 SASJ 100500Z 30005KT CAVOK 06/03 Q1030 RMK PP000
MDQ SAZM Mar del Plata, AR Ástor Piazzola International Airport 5 6.21 4/4 30.41 SAZM 100500Z 29005KT CAVOK 04/04 Q1030 RMK PP///
PDP SULS Punta del Este, UY Capitan Corbeta CA Curbelo International Airport 2 0.75 3/3 30.41 SULS 100500Z 30002KT 1200 0300NW PRFG BR FEW002 03/03 Q1030
MEX MMMX Mexico City, MX Licenciado Benito Juarez International Airport 0 10 15/12 30.41 MMMX 100446Z 00000KT 10SM FEW020 BKN080 OVC220 15/12 A3041 NOSIG RMK 60045 8/463 OCNL DROPS
K20V 0 10 17/6 30.41 K20V 100515Z AUTO 00000KT 10SM CLR 17/06 A3041 RMK AO2
BCE KBCE Bryce Canyon, US Bryce Canyon Airport 13 20 10 16/7 30.40 KBCE 100453Z AUTO 16013G20KT 10SM CLR 16/07 A3040 RMK AO2 LTG DSNT SE AND SW SLP164 T01610072
FLG KFLG Flagstaff, US Flagstaff Pulliam Airport 0 10 18/13 30.40 KFLG 100457Z AUTO 00000KT 10SM SCT095 18/14 A3040 RMK AO2 LTG DSNT N SLP179 T01830139
LAR KLAR Laramie, US Laramie Regional Airport 11 10 20/5 30.39 KLAR 100453Z AUTO 12011KT 10SM CLR 21/06 A3039 RMK AO2 SLP190 T02060056 $
KRQE Window Rock, US Window Rock Airport 0 10 20/12 30.39 KRQE 100453Z AUTO 00000KT 10SM SCT100 20/13 A3039 RMK AO2 SLP163 T02000128
EHDV 5 6.21 / 30.38 EHDV 100455Z AUTO 15005KT 9999 NCD 18/// Q1029
EHFD 6 6.21 18/14 30.38 EHFD 100455Z AUTO 23006KT 9999 NSC 18/14 Q1029